createdAt,value
2022-11-21T05:01:10.254Z,61.90
2022-11-21T05:03:39.704Z,61.79
2022-11-21T05:06:08.842Z,61.68
2022-11-21T05:08:38.398Z,61.82
2022-11-21T05:11:26.631Z,62.05
2022-11-21T05:13:56.232Z,62.13
2022-11-21T05:16:25.471Z,62.12
2022-11-21T05:18:55.006Z,62.08
2022-11-21T05:21:24.329Z,62.14
2022-11-21T05:23:54.010Z,62.13
2022-11-21T05:26:23.262Z,62.08
2022-11-21T05:28:52.526Z,62.08
2022-11-21T05:31:21.868Z,62.43
2022-11-21T05:33:51.208Z,62.37
2022-11-21T05:36:20.559Z,62.24
2022-11-21T05:38:50.144Z,62.29
2022-11-21T05:41:19.479Z,62.39
2022-11-21T05:43:49.324Z,62.22
2022-11-21T05:46:23.219Z,62.22
2022-11-21T05:48:54.614Z,62.16
2022-11-21T05:51:23.888Z,62.19
2022-11-21T05:53:53.424Z,62.51
2022-11-21T05:56:22.573Z,62.48
2022-11-21T05:58:52.075Z,62.34
2022-11-21T06:01:41.968Z,62.34
2022-11-21T06:04:12.433Z,62.50
2022-11-21T06:06:42.344Z,62.40
2022-11-21T06:09:11.939Z,62.13
2022-11-21T06:11:41.501Z,62.38
2022-11-21T06:14:10.919Z,62.32
2022-11-21T06:16:39.538Z,62.46
2022-11-21T06:19:08.892Z,62.24
2022-11-21T06:21:37.483Z,62.36
2022-11-21T06:24:08.449Z,62.52
2022-11-21T06:26:38.260Z,62.43
2022-11-21T06:29:06.815Z,62.46
2022-11-21T06:31:35.760Z,62.69
2022-11-21T06:34:05.659Z,62.47
2022-11-21T06:36:35.839Z,62.48
2022-11-21T06:39:05.332Z,62.70
2022-11-21T06:41:34.549Z,62.55
2022-11-21T06:44:03.493Z,62.67
2022-11-21T06:46:32.579Z,62.70
2022-11-21T06:49:01.605Z,62.56
2022-11-21T06:51:31.254Z,62.61
2022-11-21T06:54:01.718Z,62.65
2022-11-21T06:56:33.291Z,62.56
2022-11-21T06:59:01.856Z,62.63
2022-11-21T07:01:31.271Z,62.53
2022-11-21T07:04:01.642Z,62.73
2022-11-21T07:06:32.681Z,62.57
2022-11-21T07:12:17.870Z,62.70
2022-11-21T07:14:47.283Z,62.76
2022-11-21T07:17:16.837Z,62.86
2022-11-21T07:19:45.416Z,62.80
2022-11-21T07:22:14.412Z,63.05
2022-11-21T07:24:43.378Z,63.03
2022-11-21T07:27:13.025Z,62.77
2022-11-21T07:29:42.344Z,62.75
2022-11-21T07:32:11.534Z,62.90
2022-11-21T07:34:40.428Z,63.03
2022-11-21T07:37:09.886Z,62.83
2022-11-21T07:39:39.178Z,62.94
2022-11-21T07:42:07.623Z,62.71
2022-11-21T07:44:38.200Z,62.87
2022-11-21T07:47:07.109Z,63.05
2022-11-21T07:49:35.676Z,62.96
2022-11-21T07:52:04.663Z,62.68
2022-11-21T07:54:33.197Z,62.76
2022-11-21T07:57:01.748Z,62.93
2022-11-21T07:59:30.600Z,62.91
2022-11-21T08:01:59.383Z,62.75
2022-11-21T08:04:29.071Z,62.94
2022-11-21T08:06:58.192Z,62.95
2022-11-21T08:09:30.325Z,62.76
2022-11-21T08:11:59.008Z,63.23
2022-11-21T08:14:27.347Z,62.71
2022-11-21T08:16:55.865Z,62.87
2022-11-21T08:19:24.885Z,62.94
2022-11-21T08:21:53.637Z,63.08
2022-11-21T08:24:23.009Z,63.04
2022-11-21T08:26:52.567Z,62.96
2022-11-21T08:29:23.919Z,62.91
2022-11-21T08:31:53.153Z,63.11
2022-11-21T08:34:22.503Z,63.04
2022-11-21T08:36:52.134Z,62.91
2022-11-21T08:39:21.324Z,62.98
2022-11-21T08:42:06.078Z,62.98
2022-11-21T08:44:35.995Z,63.16
2022-11-21T08:47:07.140Z,63.03
2022-11-21T08:49:36.787Z,63.02
2022-11-21T08:52:06.257Z,63.17
2022-11-21T08:54:35.487Z,63.21
2022-11-21T08:57:05.129Z,63.28
2022-11-21T08:59:34.343Z,63.26
2022-11-21T09:02:02.967Z,63.15
2022-11-21T09:04:32.611Z,63.13
2022-11-21T09:07:02.635Z,63.09
2022-11-21T09:09:32.155Z,63.23
2022-11-21T09:12:03.393Z,63.11
2022-11-21T09:14:51.839Z,63.10
2022-11-21T09:17:40.087Z,63.06
2022-11-21T09:20:10.241Z,63.13
2022-11-21T09:22:39.630Z,63.18
2022-11-21T09:25:09.475Z,62.98
2022-11-21T09:27:38.799Z,63.04
2022-11-21T09:30:08.725Z,63.19
2022-11-21T09:32:38.197Z,63.16
2022-11-21T09:35:07.438Z,62.93
2022-11-21T09:37:39.744Z,63.05
2022-11-21T09:40:16.815Z,63.15
2022-11-21T09:43:03.339Z,63.20
2022-11-21T09:45:42.560Z,63.17
2022-11-21T09:48:24.731Z,63.08
2022-11-21T09:51:07.060Z,62.86
2022-11-21T09:53:59.002Z,63.15
2022-11-21T09:56:32.047Z,63.21
2022-11-21T09:59:31.212Z,63.09
2022-11-21T10:02:01.535Z,63.18
2022-11-21T10:04:32.430Z,62.95
2022-11-21T10:07:17.976Z,62.77
2022-11-21T10:10:05.683Z,62.85
2022-11-21T10:12:46.230Z,62.91
2022-11-21T10:15:39.093Z,62.81
2022-11-21T10:18:33.180Z,62.86
2022-11-21T10:21:05.921Z,62.97
2022-11-21T10:23:47.577Z,62.93
2022-11-21T10:26:39.289Z,63.02
2022-11-21T10:29:28.936Z,63.16
2022-11-21T10:32:03.757Z,63.12
2022-11-21T10:34:38.659Z,63.19
2022-11-21T10:37:38.076Z,62.94
2022-11-21T10:40:37.645Z,62.89
2022-11-21T10:43:50.795Z,62.87
2022-11-21T10:46:20.402Z,62.97
2022-11-21T10:49:00.103Z,62.92
2022-11-21T10:51:54.205Z,63.01
2022-11-21T10:54:35.742Z,63.16
2022-11-21T10:57:17.581Z,62.94
2022-11-21T11:00:01.432Z,63.07
2022-11-21T11:02:30.763Z,63.04
2022-11-21T11:05:23.708Z,63.04
2022-11-21T11:08:14.494Z,63.15
2022-11-21T11:11:06.431Z,63.17
2022-11-21T11:13:57.818Z,63.07
2022-11-21T11:16:28.955Z,63.00
2022-11-21T11:19:14.907Z,63.09
2022-11-21T11:21:46.393Z,63.07
2022-11-21T11:24:14.787Z,63.06
2022-11-21T11:27:01.225Z,62.93
2022-11-21T11:29:32.888Z,63.27
2022-11-21T11:32:04.659Z,63.16
2022-11-21T11:34:37.460Z,63.08
2022-11-21T11:37:17.318Z,63.17
2022-11-21T11:40:05.201Z,63.16
2022-11-21T11:43:18.563Z,63.15
2022-11-21T11:46:41.528Z,63.08
2022-11-21T11:49:55.829Z,63.25
2022-11-21T11:52:29.708Z,63.50
2022-11-21T11:55:08.426Z,63.34
2022-11-21T11:57:39.106Z,63.40
2022-11-21T12:00:48.150Z,63.46
2022-11-21T12:03:25.383Z,63.48
2022-11-21T12:06:09.761Z,63.37
2022-11-21T12:09:02.483Z,63.25
2022-11-21T12:12:08.606Z,63.22
2022-11-21T12:15:19.488Z,63.35
2022-11-21T12:18:18.281Z,63.43
2022-11-21T12:21:19.222Z,63.77
2022-11-21T12:23:52.142Z,63.61
2022-11-21T12:26:21.567Z,63.52
2022-11-21T12:29:01.007Z,63.47
2022-11-21T12:31:57.678Z,63.66
2022-11-21T12:34:44.988Z,63.48
2022-11-21T12:37:18.205Z,63.53
2022-11-21T12:40:00.960Z,63.45
2022-11-21T12:43:08.697Z,63.53
2022-11-21T12:46:01.447Z,63.36
2022-11-21T12:49:17.521Z,63.44
2022-11-21T12:52:52.195Z,63.54
2022-11-21T12:55:41.073Z,63.46
2022-11-21T12:58:33.441Z,63.67
2022-11-21T13:01:20.910Z,63.70
2022-11-21T13:04:23.368Z,63.71
2022-11-21T13:06:56.560Z,63.63
2022-11-21T13:09:28.849Z,63.61
2022-11-21T13:12:09.097Z,63.71
2022-11-21T13:15:00.630Z,63.55
2022-11-21T13:17:38.058Z,63.43
2022-11-21T13:20:46.702Z,63.81
2022-11-21T13:23:48.160Z,63.77
2022-11-21T13:26:26.897Z,63.87
2022-11-21T13:29:09.353Z,63.86
2022-11-21T13:31:42.164Z,63.86
2022-11-21T13:34:38.732Z,63.86
2022-11-21T13:37:09.602Z,63.95
2022-11-21T13:39:39.649Z,63.98
2022-11-21T13:42:29.229Z,64.13
2022-11-21T13:45:00.021Z,64.05
2022-11-21T13:47:32.336Z,63.91
2022-11-21T13:50:26.425Z,63.99
2022-11-21T13:53:24.771Z,64.00
2022-11-21T13:56:01.875Z,63.94
2022-11-21T13:58:55.851Z,63.96
2022-11-21T14:01:28.290Z,64.05
2022-11-21T14:04:19.127Z,64.17
2022-11-21T14:06:48.838Z,63.89
2022-11-21T14:09:23.115Z,64.05
2022-11-21T14:11:58.007Z,64.05
2022-11-21T14:14:39.539Z,64.09
2022-11-21T14:17:24.020Z,64.25
2022-11-21T14:19:56.613Z,64.18
2022-11-21T14:22:45.655Z,64.08
2022-11-21T14:25:20.419Z,64.14
2022-11-21T14:27:52.681Z,63.96
2022-11-21T14:30:33.370Z,64.13
2022-11-21T14:33:25.669Z,64.15
2022-11-21T14:35:55.061Z,64.13
2022-11-21T14:38:25.077Z,64.25
2022-11-21T14:41:13.410Z,64.13
2022-11-21T14:43:42.448Z,64.18
2022-11-21T14:46:16.704Z,64.09
2022-11-21T14:48:45.542Z,64.24
2022-11-21T14:51:20.313Z,64.19
2022-11-21T14:53:51.198Z,64.18
2022-11-21T14:56:26.128Z,64.21
2022-11-21T14:58:56.874Z,64.25
2022-11-21T15:01:28.965Z,64.27
2022-11-21T15:04:06.291Z,64.19
2022-11-21T15:06:43.493Z,64.15
2022-11-21T15:12:50.733Z,64.35
2022-11-21T15:15:29.144Z,64.38
2022-11-21T15:18:26.514Z,64.39
2022-11-21T15:20:56.457Z,64.39
2022-11-21T15:23:44.438Z,64.35
2022-11-21T15:26:55.605Z,64.33
2022-11-21T15:29:34.411Z,64.33
2022-11-21T15:32:16.534Z,64.27
2022-11-21T15:35:39.883Z,64.23
2022-11-21T15:38:24.476Z,64.35
2022-11-21T15:40:59.191Z,64.18
2022-11-21T15:43:39.484Z,64.23
2022-11-21T15:46:26.845Z,64.48
2022-11-21T15:49:25.154Z,64.29
2022-11-21T15:52:06.491Z,64.46
2022-11-21T15:54:36.642Z,64.36
2022-11-21T15:57:05.070Z,64.30
2022-11-21T15:59:33.724Z,64.32
2022-11-21T16:02:02.943Z,64.48
2022-11-21T16:04:31.996Z,64.43
2022-11-21T16:07:01.227Z,64.53
2022-11-21T16:09:30.978Z,64.57
2022-11-21T16:12:00.524Z,64.48
2022-11-21T16:14:29.732Z,64.48
2022-11-21T16:16:59.151Z,64.51
2022-11-21T16:19:28.788Z,64.55
2022-11-21T16:21:58.778Z,64.44
2022-11-21T16:24:28.101Z,64.54
2022-11-21T16:26:57.709Z,64.61
2022-11-21T16:29:27.292Z,64.80
2022-11-21T16:31:56.973Z,64.84
2022-11-21T16:34:27.929Z,64.56
2022-11-21T16:36:57.156Z,64.57
2022-11-21T16:39:25.950Z,64.74
2022-11-21T16:41:54.749Z,64.54
2022-11-21T16:44:23.678Z,64.65
2022-11-21T16:46:54.935Z,64.54
2022-11-21T16:49:25.113Z,64.70
2022-11-21T16:51:53.993Z,64.61
2022-11-21T16:54:22.557Z,64.73
2022-11-21T16:56:51.088Z,64.55
2022-11-21T16:59:19.557Z,64.54
2022-11-21T17:01:48.299Z,64.72
2022-11-21T17:04:17.610Z,64.66
2022-11-21T17:06:49.461Z,64.84
2022-11-21T17:09:18.036Z,64.64
2022-11-21T17:11:47.285Z,64.72
2022-11-21T17:14:16.905Z,64.69
2022-11-21T17:16:46.221Z,64.74
2022-11-21T17:19:16.419Z,64.79
2022-11-21T17:21:45.137Z,64.76
2022-11-21T17:24:14.292Z,64.78
2022-11-21T17:26:43.463Z,64.80
2022-11-21T17:29:13.218Z,64.78
2022-11-21T17:31:43.063Z,64.87
2022-11-21T17:34:12.158Z,64.87
2022-11-21T17:36:40.807Z,64.88
2022-11-21T17:39:15.401Z,64.64
2022-11-21T17:41:45.326Z,64.75
2022-11-21T17:44:18.039Z,64.83
2022-11-21T17:46:47.881Z,64.88
2022-11-21T17:49:16.694Z,64.80
2022-11-21T17:51:46.109Z,64.95
2022-11-21T17:54:15.512Z,64.98
2022-11-21T17:56:47.396Z,65.04
2022-11-21T17:59:20.996Z,64.97
2022-11-21T18:01:50.332Z,65.02
2022-11-21T18:04:19.942Z,64.91
2022-11-21T18:06:49.887Z,64.88
2022-11-21T18:09:19.644Z,65.05
2022-11-21T18:11:48.901Z,65.20
2022-11-21T18:14:19.588Z,65.20
2022-11-21T18:16:53.021Z,65.02
2022-11-21T18:19:23.498Z,65.13
2022-11-21T18:21:54.057Z,65.00
2022-11-21T18:24:22.882Z,64.99
2022-11-21T18:26:51.933Z,65.14
2022-11-21T18:29:38.705Z,65.04
2022-11-21T18:32:09.028Z,65.13
2022-11-21T18:34:41.194Z,65.08
2022-11-21T18:37:10.969Z,65.22
2022-11-21T18:39:40.139Z,65.10
2022-11-21T18:42:09.243Z,64.95
2022-11-21T18:44:38.960Z,65.09
2022-11-21T18:47:19.777Z,65.27
2022-11-21T18:49:49.873Z,65.12
2022-11-21T18:52:18.778Z,65.24
2022-11-21T18:54:47.426Z,65.24
2022-11-21T18:57:16.462Z,65.18
2022-11-21T18:59:45.165Z,65.23
2022-11-21T19:02:14.493Z,65.23
2022-11-21T19:04:43.782Z,65.42
2022-11-21T19:07:12.480Z,65.47
2022-11-21T19:09:41.927Z,65.36
2022-11-21T19:12:11.443Z,65.21
2022-11-21T19:14:40.111Z,65.33
2022-11-21T19:17:08.904Z,65.10
2022-11-21T19:19:38.048Z,65.50
2022-11-21T19:22:07.123Z,65.30
2022-11-21T19:24:35.979Z,65.27
2022-11-21T19:27:04.637Z,65.40
2022-11-21T19:29:33.494Z,65.17
2022-11-21T19:32:02.644Z,65.20
2022-11-21T19:34:33.101Z,65.57
2022-11-21T19:37:02.195Z,65.23
2022-11-21T19:39:31.602Z,65.50
2022-11-21T19:42:00.438Z,65.34
2022-11-21T19:44:29.597Z,65.28
2022-11-21T19:46:58.554Z,65.44
2022-11-21T19:49:28.193Z,65.52
2022-11-21T19:51:57.646Z,65.17
2022-11-21T19:54:26.938Z,65.33
2022-11-21T19:56:56.580Z,65.53
2022-11-21T19:59:25.815Z,65.41
2022-11-21T20:01:54.982Z,65.35
2022-11-21T20:04:24.503Z,65.60
2022-11-21T20:06:54.143Z,65.83
2022-11-21T20:09:23.803Z,65.59
2022-11-21T20:11:53.717Z,65.49
2022-11-21T20:14:26.250Z,65.70
2022-11-21T20:16:55.692Z,65.65
2022-11-21T20:19:25.458Z,65.59
2022-11-21T20:21:56.041Z,65.48
2022-11-21T20:24:25.099Z,65.58
2022-11-21T20:26:54.512Z,65.82
2022-11-21T20:29:23.683Z,65.54
2022-11-21T20:31:53.136Z,65.38
2022-11-21T20:34:22.571Z,65.42
2022-11-21T20:36:52.345Z,65.85
2022-11-21T20:39:22.107Z,65.71
2022-11-21T20:41:51.415Z,65.87
2022-11-21T20:47:11.484Z,65.66
2022-11-21T20:49:40.684Z,65.63
2022-11-21T20:55:00.015Z,65.58
2022-11-21T20:57:30.962Z,65.29
2022-11-21T21:00:00.305Z,65.58
2022-11-21T21:02:29.811Z,65.58
2022-11-21T21:04:59.281Z,65.76
2022-11-21T21:07:28.673Z,65.62
2022-11-21T21:09:59.477Z,65.52
2022-11-21T21:12:32.016Z,65.80
2022-11-21T21:15:01.644Z,65.81
2022-11-21T21:17:31.142Z,65.58
2022-11-21T21:20:00.764Z,66.05
2022-11-21T21:22:30.091Z,65.80
2022-11-21T21:24:59.477Z,65.85
2022-11-21T21:27:28.923Z,65.81
2022-11-21T21:29:58.219Z,65.89
2022-11-21T21:32:27.708Z,66.15
2022-11-21T21:35:00.031Z,65.88
2022-11-21T21:37:29.991Z,65.79
2022-11-21T21:40:03.973Z,65.75
2022-11-21T21:42:36.283Z,66.13
2022-11-21T21:45:05.676Z,65.72
2022-11-21T21:47:35.529Z,65.79
2022-11-21T21:50:09.178Z,65.65
2022-11-21T21:52:42.034Z,65.74
2022-11-21T21:55:11.340Z,66.09
2022-11-21T21:57:46.038Z,65.94
2022-11-21T22:04:14.490Z,66.12
2022-11-21T22:06:44.113Z,65.83
2022-11-21T22:09:16.144Z,66.15
2022-11-21T22:11:47.609Z,65.85
2022-11-21T22:14:18.924Z,65.82
2022-11-21T22:16:48.481Z,65.86
2022-11-21T22:19:18.715Z,65.98
2022-11-21T22:21:48.106Z,65.97
2022-11-21T22:24:26.836Z,66.13
2022-11-21T22:26:57.331Z,66.06
2022-11-21T22:29:27.201Z,65.87
2022-11-21T22:31:57.306Z,66.10
2022-11-21T22:34:27.742Z,65.93
2022-11-21T22:36:57.698Z,65.90
2022-11-21T22:39:27.963Z,66.04
2022-11-21T22:41:59.942Z,65.87
2022-11-21T22:44:30.383Z,65.98
2022-11-21T22:47:00.196Z,66.03
2022-11-21T22:49:29.579Z,66.12
2022-11-21T22:51:59.052Z,65.83
2022-11-21T22:54:28.623Z,66.15
2022-11-21T22:56:58.249Z,66.08
2022-11-21T22:59:27.526Z,66.14
2022-11-21T23:01:56.929Z,65.97
2022-11-21T23:04:32.114Z,66.37
2022-11-21T23:07:02.524Z,66.24
2022-11-21T23:09:36.934Z,66.05
2022-11-21T23:12:07.776Z,66.06
2022-11-21T23:14:37.927Z,66.03
2022-11-21T23:17:07.442Z,65.96
2022-11-21T23:19:36.915Z,65.81
2022-11-21T23:22:06.407Z,66.02
2022-11-21T23:24:35.639Z,65.96
2022-11-21T23:27:05.631Z,65.99
2022-11-21T23:29:34.761Z,66.17
2022-11-21T23:32:04.286Z,66.07
2022-11-21T23:34:33.421Z,66.10
2022-11-21T23:37:02.841Z,66.30
2022-11-21T23:39:32.351Z,66.18
2022-11-21T23:42:01.706Z,66.17
2022-11-21T23:44:31.113Z,66.21
2022-11-21T23:47:00.516Z,66.05
2022-11-21T23:49:29.903Z,66.05
2022-11-21T23:51:59.439Z,66.50
2022-11-21T23:54:28.786Z,66.04
2022-11-21T23:56:58.216Z,66.32
2022-11-21T23:59:27.571Z,66.45
